createdAt,value
2018-04-18T00:00:49.265Z,10.30
2018-04-18T00:03:17.686Z,10.20
2018-04-18T00:05:45.215Z,10.20
2018-04-18T00:08:13.494Z,10.10
2018-04-18T00:10:42.005Z,10.10
2018-04-18T00:13:09.743Z,10.10
2018-04-18T00:15:38.032Z,10.10
2018-04-18T00:18:06.347Z,10.10
2018-04-18T00:20:33.863Z,10.00
2018-04-18T00:23:02.136Z,10.00
2018-04-18T00:25:30.535Z,10.00
2018-04-18T00:27:58.815Z,10.00
2018-04-18T00:30:27.221Z,9.90
2018-04-18T00:32:54.743Z,9.90
2018-04-18T00:35:23.044Z,9.90
2018-04-18T00:37:51.468Z,9.90
2018-04-18T00:40:18.967Z,9.80
2018-04-18T00:42:46.471Z,9.80
2018-04-18T00:45:13.996Z,9.80
2018-04-18T00:47:41.529Z,9.70
2018-04-18T00:50:09.043Z,9.60
2018-04-18T00:52:37.426Z,9.60
2018-04-18T00:55:05.698Z,9.60
2018-04-18T00:57:34.200Z,9.60
2018-04-18T01:00:01.718Z,9.60
2018-04-18T01:02:29.225Z,9.60
2018-04-18T01:04:56.758Z,9.50
2018-04-18T01:07:24.292Z,9.50
2018-04-18T01:09:51.799Z,9.50
2018-04-18T01:12:20.208Z,9.40
2018-04-18T01:14:47.711Z,9.40
2018-04-18T01:17:15.992Z,9.40
2018-04-18T01:19:43.725Z,9.40
2018-04-18T01:22:11.230Z,9.40
2018-04-18T01:24:38.765Z,9.30
2018-04-18T01:27:06.307Z,9.30
2018-04-18T01:29:33.823Z,9.20
2018-04-18T01:32:01.355Z,9.10
2018-04-18T01:34:28.902Z,9.10
2018-04-18T01:36:56.412Z,9.20
2018-04-18T01:39:24.083Z,9.10
2018-04-18T01:41:51.821Z,9.00
2018-04-18T01:44:19.359Z,9.00
2018-04-18T01:46:46.868Z,8.90
2018-04-18T01:49:21.425Z,8.90
2018-04-18T01:51:49.723Z,8.90
2018-04-18T01:54:17.298Z,8.90
2018-04-18T01:56:45.057Z,8.80
2018-04-18T01:59:12.578Z,8.80
2018-04-18T02:01:40.088Z,8.80
2018-04-18T02:04:07.719Z,8.80
2018-04-18T02:06:35.228Z,8.80
2018-04-18T02:09:02.776Z,8.70
2018-04-18T02:11:30.464Z,8.70
2018-04-18T02:13:57.979Z,8.70
2018-04-18T02:16:26.269Z,8.60
2018-04-18T02:18:54.682Z,8.60
2018-04-18T02:21:22.197Z,8.60
2018-04-18T02:23:49.700Z,8.60
2018-04-18T02:26:17.486Z,8.60
2018-04-18T02:28:44.999Z,8.50
2018-04-18T02:31:13.295Z,8.50
2018-04-18T02:33:41.679Z,8.60
2018-04-18T02:36:09.943Z,8.60
2018-04-18T02:38:39.251Z,8.50
2018-04-18T02:41:07.527Z,8.40
2018-04-18T02:43:35.915Z,8.40
2018-04-18T02:46:04.191Z,8.30
2018-04-18T02:48:32.469Z,8.30
2018-04-18T02:51:00.768Z,8.20
2018-04-18T02:53:28.289Z,8.20
2018-04-18T02:55:55.810Z,8.20
2018-04-18T02:58:23.455Z,8.20
2018-04-18T03:00:50.999Z,8.20
2018-04-18T03:03:18.508Z,8.10
2018-04-18T03:05:46.268Z,8.10
2018-04-18T03:08:13.779Z,8.10
2018-04-18T03:10:41.289Z,8.00
2018-04-18T03:13:08.836Z,8.00
2018-04-18T03:15:37.134Z,8.00
2018-04-18T03:18:04.667Z,7.90
2018-04-18T03:20:32.209Z,7.90
2018-04-18T03:22:59.731Z,7.90
2018-04-18T03:25:27.246Z,7.90
2018-04-18T03:27:54.798Z,7.90
2018-04-18T03:30:22.332Z,7.80
2018-04-18T03:32:49.837Z,7.80
2018-04-18T03:35:17.397Z,7.80
2018-04-18T03:37:44.906Z,7.90
2018-04-18T03:40:12.412Z,7.90
2018-04-18T03:42:40.074Z,7.80
2018-04-18T03:45:07.572Z,7.80
2018-04-18T03:47:35.848Z,7.80
2018-04-18T03:50:03.398Z,7.80
2018-04-18T03:52:31.013Z,7.80
2018-04-18T03:54:58.516Z,7.80
2018-04-18T03:57:26.172Z,7.80
2018-04-18T03:59:53.676Z,7.80
2018-04-18T04:02:21.965Z,7.80
2018-04-18T04:04:50.424Z,7.80
2018-04-18T04:07:17.938Z,7.80
2018-04-18T04:09:45.470Z,7.80
2018-04-18T04:12:13.857Z,7.80
2018-04-18T04:14:42.127Z,7.80
2018-04-18T04:17:22.306Z,7.80
2018-04-18T04:20:01.680Z,7.80
2018-04-18T04:22:41.035Z,7.80
2018-04-18T04:25:08.556Z,7.80
2018-04-18T04:27:36.074Z,7.80
2018-04-18T04:30:04.467Z,7.90
2018-04-18T04:32:32.756Z,7.90
2018-04-18T04:35:00.275Z,7.80
2018-04-18T04:37:27.819Z,7.80
2018-04-18T04:39:55.335Z,7.80
2018-04-18T04:42:23.624Z,7.80
2018-04-18T04:44:51.234Z,7.80
2018-04-18T04:47:18.765Z,7.90
2018-04-18T04:49:46.287Z,7.80
2018-04-18T04:52:14.701Z,7.80
2018-04-18T04:54:42.230Z,7.80
2018-04-18T04:57:09.764Z,7.80
2018-04-18T04:59:37.295Z,7.90
2018-04-18T05:02:04.802Z,7.90
2018-04-18T05:04:32.314Z,8.00
2018-04-18T05:07:00.012Z,8.10
2018-04-18T05:09:27.519Z,8.10
2018-04-18T05:11:55.033Z,8.10
2018-04-18T05:14:22.589Z,8.10
2018-04-18T05:16:50.122Z,8.10
2018-04-18T05:19:18.446Z,8.10
2018-04-18T05:21:46.084Z,8.10
2018-04-18T05:24:13.605Z,8.20
2018-04-18T05:26:41.136Z,8.20
2018-04-18T05:29:08.792Z,8.20
2018-04-18T05:31:36.331Z,8.30
2018-04-18T05:34:03.851Z,8.40
2018-04-18T05:36:31.472Z,8.40
2018-04-18T05:38:58.982Z,8.40
2018-04-18T05:41:26.487Z,8.50
2018-04-18T05:43:54.883Z,8.70
2018-04-18T05:46:22.421Z,8.70
2018-04-18T05:48:50.701Z,8.90
2018-04-18T05:51:19.253Z,9.00
2018-04-18T05:53:46.767Z,9.00
2018-04-18T05:56:15.066Z,9.20
2018-04-18T05:58:42.609Z,9.20
2018-04-18T06:01:10.130Z,9.30
2018-04-18T06:03:37.646Z,9.50
2018-04-18T06:06:05.317Z,9.60
2018-04-18T06:08:32.873Z,9.70
2018-04-18T06:11:00.363Z,9.80
2018-04-18T06:13:28.935Z,9.90
2018-04-18T06:15:56.444Z,10.00
2018-04-18T06:18:23.953Z,10.10
2018-04-18T06:20:51.500Z,10.20
2018-04-18T06:23:19.776Z,10.40
2018-04-18T06:25:48.186Z,10.50
2018-04-18T06:28:15.694Z,10.50
2018-04-18T06:30:43.218Z,10.50
2018-04-18T06:33:10.861Z,10.60
2018-04-18T06:35:38.379Z,10.70
2018-04-18T06:38:05.889Z,10.80
2018-04-18T06:40:33.517Z,10.90
2018-04-18T06:43:01.039Z,11.00
2018-04-18T06:45:28.623Z,11.20
2018-04-18T06:47:56.131Z,11.30
2018-04-18T06:50:24.411Z,11.50
2018-04-18T06:52:52.715Z,11.70
2018-04-18T06:55:20.236Z,11.60
2018-04-18T06:57:47.771Z,11.80
2018-04-18T07:00:15.547Z,12.00
2018-04-18T07:02:43.090Z,12.10
2018-04-18T07:05:10.619Z,12.20
2018-04-18T07:07:39.049Z,12.40
2018-04-18T07:10:06.566Z,12.40
2018-04-18T07:12:34.859Z,12.70
2018-04-18T07:15:02.435Z,12.70
2018-04-18T07:17:29.953Z,12.80
2018-04-18T07:19:57.499Z,12.90
2018-04-18T07:22:25.040Z,13.00
2018-04-18T07:24:52.566Z,13.10
2018-04-18T07:27:20.852Z,13.30
2018-04-18T07:29:49.490Z,13.30
2018-04-18T07:32:17.007Z,13.30
2018-04-18T07:34:44.534Z,13.50
2018-04-18T07:37:12.180Z,13.60
2018-04-18T07:39:39.698Z,13.70
2018-04-18T07:42:07.236Z,13.80
2018-04-18T07:44:34.797Z,13.90
2018-04-18T07:47:03.121Z,14.10
2018-04-18T07:49:30.671Z,14.10
2018-04-18T07:51:59.073Z,14.30
2018-04-18T07:54:26.592Z,14.30
2018-04-18T07:56:54.113Z,14.40
2018-04-18T07:59:21.765Z,14.50
2018-04-18T08:01:49.291Z,14.60
2018-04-18T08:04:17.587Z,14.80
2018-04-18T08:06:46.081Z,14.90
2018-04-18T08:09:13.599Z,14.90
2018-04-18T08:11:41.126Z,15.20
2018-04-18T08:14:08.767Z,15.20
2018-04-18T08:16:37.064Z,15.50
2018-04-18T08:19:04.588Z,15.50
2018-04-18T08:21:32.269Z,15.70
2018-04-18T08:24:00.563Z,15.70
2018-04-18T08:26:28.077Z,15.70
2018-04-18T08:28:55.821Z,15.90
2018-04-18T08:31:23.368Z,16.00
2018-04-18T08:33:50.884Z,16.20
2018-04-18T08:36:18.438Z,16.20
2018-04-18T08:38:45.954Z,16.10
2018-04-18T08:41:13.459Z,16.00
2018-04-18T08:43:41.112Z,15.90
2018-04-18T08:46:08.625Z,16.00
2018-04-18T08:48:36.909Z,16.30
2018-04-18T08:51:05.416Z,16.20
2018-04-18T08:53:32.931Z,16.20
2018-04-18T08:56:00.466Z,16.30
2018-04-18T08:58:28.114Z,16.40
2018-04-18T09:00:55.635Z,16.40
2018-04-18T09:03:23.152Z,16.40
2018-04-18T09:05:50.801Z,16.50
2018-04-18T09:08:18.313Z,16.70
2018-04-18T09:10:45.914Z,16.80
2018-04-18T09:13:14.437Z,17.10
2018-04-18T09:15:41.989Z,17.10
2018-04-18T09:18:09.509Z,17.20
2018-04-18T09:20:37.865Z,17.20
2018-04-18T09:23:05.394Z,17.10
2018-04-18T09:25:32.907Z,17.20
2018-04-18T09:28:00.656Z,17.30
2018-04-18T09:30:28.178Z,17.30
2018-04-18T09:32:55.705Z,17.30
2018-04-18T09:35:23.356Z,17.30
2018-04-18T09:37:50.868Z,17.50
2018-04-18T09:40:18.399Z,17.60
2018-04-18T09:42:46.817Z,17.80
2018-04-18T09:45:14.332Z,17.80
2018-04-18T09:47:41.870Z,17.80
2018-04-18T09:50:09.434Z,18.00
2018-04-18T09:52:36.960Z,18.10
2018-04-18T09:55:04.513Z,18.20
2018-04-18T09:57:32.927Z,18.30
2018-04-18T10:00:00.463Z,18.20
2018-04-18T10:02:29.892Z,18.20
2018-04-18T10:05:10.159Z,18.20
2018-04-18T10:07:37.877Z,18.40
2018-04-18T10:10:06.168Z,18.40
2018-04-18T10:12:34.497Z,18.60
2018-04-18T10:15:02.174Z,18.60
2018-04-18T10:17:29.716Z,18.70
2018-04-18T10:19:57.233Z,18.30
2018-04-18T10:22:25.051Z,18.30
2018-04-18T10:24:52.594Z,18.50
2018-04-18T10:27:20.104Z,18.50
2018-04-18T10:29:47.733Z,18.60
2018-04-18T10:32:15.235Z,18.80
2018-04-18T10:34:42.746Z,18.80
2018-04-18T10:37:10.431Z,19.00
2018-04-18T10:39:37.955Z,19.30
2018-04-18T10:42:06.297Z,19.30
2018-04-18T10:44:33.959Z,19.30
2018-04-18T10:47:01.517Z,19.60
2018-04-18T10:49:29.040Z,19.30
2018-04-18T10:51:57.457Z,19.60
2018-04-18T10:54:24.988Z,19.50
2018-04-18T10:56:53.259Z,19.80
2018-04-18T10:59:21.673Z,19.70
2018-04-18T11:01:49.236Z,19.70
2018-04-18T11:04:16.778Z,19.90
2018-04-18T11:06:45.271Z,20.10
2018-04-18T11:09:12.788Z,20.10
2018-04-18T11:11:40.316Z,20.10
2018-04-18T11:14:08.040Z,20.40
2018-04-18T11:16:35.752Z,20.60
2018-04-18T11:19:03.258Z,20.60
2018-04-18T11:21:30.882Z,20.90
2018-04-18T11:23:58.404Z,20.80
2018-04-18T11:26:26.708Z,21.10
2018-04-18T11:28:54.518Z,21.10
2018-04-18T11:31:22.078Z,21.00
2018-04-18T11:33:49.637Z,20.90
2018-04-18T11:36:17.376Z,21.10
2018-04-18T11:38:44.918Z,21.30
2018-04-18T11:41:13.258Z,20.90
2018-04-18T11:43:40.797Z,20.80
2018-04-18T11:46:08.304Z,21.00
2018-04-18T11:48:35.827Z,21.10
2018-04-18T11:51:03.596Z,21.60
2018-04-18T11:53:31.117Z,21.80
2018-04-18T11:55:59.419Z,22.00
2018-04-18T11:58:27.201Z,21.90
2018-04-18T12:00:54.712Z,22.00
2018-04-18T12:03:22.270Z,21.30
2018-04-18T12:05:49.911Z,21.60
2018-04-18T12:08:17.462Z,21.70
2018-04-18T12:10:45.001Z,21.90
2018-04-18T12:13:13.432Z,21.60
2018-04-18T12:15:41.006Z,21.50
2018-04-18T12:18:08.554Z,22.00
2018-04-18T12:20:36.245Z,22.30
2018-04-18T12:23:03.765Z,22.20
2018-04-18T12:25:31.291Z,22.30
2018-04-18T12:27:59.830Z,22.30
2018-04-18T12:30:27.482Z,22.30
2018-04-18T12:32:55.006Z,22.70
2018-04-18T12:35:23.446Z,22.50
2018-04-18T12:37:50.991Z,22.50
2018-04-18T12:40:18.549Z,22.60
2018-04-18T12:42:46.253Z,22.50
2018-04-18T12:45:13.792Z,22.80
2018-04-18T12:47:41.335Z,22.90
2018-04-18T12:50:09.004Z,22.70
2018-04-18T12:52:36.562Z,22.90
2018-04-18T12:55:04.103Z,23.00
2018-04-18T12:57:31.926Z,22.80
2018-04-18T12:59:59.458Z,23.20
2018-04-18T13:02:27.005Z,23.10
2018-04-18T13:04:55.333Z,23.10
2018-04-18T13:07:22.994Z,23.10
2018-04-18T13:09:50.588Z,22.60
2018-04-18T13:12:18.351Z,22.50
2018-04-18T13:14:45.937Z,22.80
2018-04-18T13:17:13.463Z,23.10
2018-04-18T13:19:41.019Z,22.80
2018-04-18T13:22:08.573Z,22.40
2018-04-18T13:24:36.126Z,22.70
2018-04-18T13:27:03.764Z,22.40
2018-04-18T13:29:31.286Z,22.60
2018-04-18T13:31:58.817Z,22.60
2018-04-18T13:34:26.403Z,22.60
2018-04-18T13:36:53.940Z,22.50
2018-04-18T13:39:22.286Z,22.20
2018-04-18T13:41:49.876Z,22.20
2018-04-18T13:44:18.196Z,22.40
2018-04-18T13:46:45.786Z,22.40
2018-04-18T13:49:13.439Z,22.30
2018-04-18T13:51:41.042Z,22.20
2018-04-18T13:54:08.565Z,21.90
2018-04-18T13:56:36.248Z,22.00
2018-04-18T13:59:03.837Z,22.00
2018-04-18T14:01:31.419Z,21.80
2018-04-18T14:03:59.970Z,21.90
2018-04-18T14:06:27.489Z,21.90
2018-04-18T14:08:55.052Z,21.60
2018-04-18T14:11:22.714Z,21.70
2018-04-18T14:13:50.263Z,21.50
2018-04-18T14:16:18.595Z,21.50
2018-04-18T14:18:46.340Z,21.50
2018-04-18T14:21:14.947Z,21.30
2018-04-18T14:23:42.505Z,21.30
2018-04-18T14:26:10.251Z,21.20
2018-04-18T14:28:37.827Z,21.30
2018-04-18T14:31:05.363Z,21.20
2018-04-18T14:33:33.671Z,21.10
2018-04-18T14:36:01.201Z,21.10
2018-04-18T14:38:29.502Z,20.90
2018-04-18T14:40:57.321Z,20.80
2018-04-18T14:43:24.873Z,20.80
2018-04-18T14:45:52.477Z,20.90
2018-04-18T14:48:20.240Z,20.80
2018-04-18T14:50:48.606Z,20.80
2018-04-18T14:53:16.149Z,20.80
2018-04-18T14:55:43.801Z,20.70
2018-04-18T14:58:11.332Z,20.60
2018-04-18T15:00:38.865Z,20.80
2018-04-18T15:03:06.468Z,20.70
2018-04-18T15:05:34.000Z,20.70
2018-04-18T15:08:01.643Z,20.70
2018-04-18T15:10:29.171Z,20.70
2018-04-18T15:12:56.730Z,20.60
2018-04-18T15:15:24.474Z,20.60
2018-04-18T15:17:52.789Z,20.70
2018-04-18T15:20:20.354Z,20.60
2018-04-18T15:22:48.035Z,20.50
2018-04-18T15:25:15.659Z,20.60
2018-04-18T15:27:43.326Z,20.50
2018-04-18T15:30:11.769Z,20.50
2018-04-18T15:32:39.289Z,20.50
2018-04-18T15:35:06.817Z,20.50
2018-04-18T15:37:34.539Z,20.50
2018-04-18T15:40:02.086Z,20.50
2018-04-18T15:42:29.612Z,20.40
2018-04-18T15:44:57.281Z,20.40
2018-04-18T15:47:24.925Z,20.50
2018-04-18T15:49:52.499Z,20.40
2018-04-18T15:52:20.092Z,20.40
2018-04-18T15:54:48.406Z,20.30
2018-04-18T15:57:16.037Z,20.30
2018-04-18T15:59:44.489Z,20.20
2018-04-18T16:02:12.061Z,20.20
2018-04-18T16:04:39.600Z,20.20
2018-04-18T16:07:07.388Z,20.10
2018-04-18T16:09:34.957Z,20.00
2018-04-18T16:12:02.524Z,20.00
2018-04-18T16:14:30.224Z,19.90
2018-04-18T16:16:57.767Z,19.90
2018-04-18T16:19:26.071Z,20.00
2018-04-18T16:21:53.758Z,20.00
2018-04-18T16:24:21.351Z,19.90
2018-04-18T16:26:48.879Z,19.80
2018-04-18T16:29:28.710Z,19.80
2018-04-18T16:31:56.230Z,19.80
2018-04-18T16:34:23.747Z,19.70
2018-04-18T16:36:51.302Z,19.60
2018-04-18T16:39:19.757Z,19.70
2018-04-18T16:41:48.089Z,19.60
2018-04-18T16:44:15.616Z,19.60
2018-04-18T16:46:43.917Z,19.50
2018-04-18T16:49:11.547Z,19.50
2018-04-18T16:51:39.821Z,19.40
2018-04-18T16:54:07.359Z,19.40
2018-04-18T16:56:34.907Z,19.30
2018-04-18T16:59:02.528Z,19.30
2018-04-18T17:01:30.826Z,19.10
2018-04-18T17:03:58.489Z,19.10
2018-04-18T17:06:26.049Z,19.10
2018-04-18T17:08:54.369Z,19.10
2018-04-18T17:11:21.960Z,19.10
2018-04-18T17:13:49.483Z,19.00
2018-04-18T17:16:17.004Z,19.00
2018-04-18T17:18:44.567Z,19.00
2018-04-18T17:21:12.997Z,18.80
2018-04-18T17:23:40.573Z,18.80
2018-04-18T17:26:08.383Z,18.80
2018-04-18T17:28:35.927Z,18.70
2018-04-18T17:31:03.511Z,18.60
2018-04-18T17:33:31.169Z,18.50
2018-04-18T17:35:58.765Z,18.50
2018-04-18T17:38:27.126Z,18.40
2018-04-18T17:40:55.621Z,18.40
2018-04-18T17:43:23.953Z,18.40
2018-04-18T17:45:51.519Z,18.30
2018-04-18T17:48:19.233Z,18.40
2018-04-18T17:50:47.562Z,18.30
2018-04-18T17:53:15.112Z,18.30
2018-04-18T17:55:42.779Z,18.30
2018-04-18T17:58:10.333Z,18.20
2018-04-18T18:00:37.905Z,18.10
2018-04-18T18:03:05.594Z,18.00
2018-04-18T18:05:33.140Z,17.90
2018-04-18T18:08:00.678Z,17.80
2018-04-18T18:10:29.019Z,17.60
2018-04-18T18:12:56.565Z,17.50
2018-04-18T18:15:24.100Z,17.40
2018-04-18T18:17:51.890Z,17.40
2018-04-18T18:20:19.407Z,17.20
2018-04-18T18:22:47.705Z,17.00
2018-04-18T18:25:16.124Z,16.90
2018-04-18T18:27:43.669Z,16.90
2018-04-18T18:30:11.199Z,16.80
2018-04-18T18:32:39.511Z,16.60
2018-04-18T18:35:07.081Z,16.60
2018-04-18T18:37:34.648Z,16.50
2018-04-18T18:40:02.445Z,16.40
2018-04-18T18:42:29.985Z,16.30
2018-04-18T18:44:57.541Z,16.20
2018-04-18T18:47:25.241Z,16.00
2018-04-18T18:49:52.846Z,16.00
2018-04-18T18:52:21.139Z,15.90
2018-04-18T18:54:48.876Z,15.80
2018-04-18T18:57:16.405Z,15.80
2018-04-18T18:59:43.979Z,15.80
2018-04-18T19:02:11.712Z,15.70
2018-04-18T19:04:39.236Z,15.60
2018-04-18T19:07:06.824Z,15.50
2018-04-18T19:09:35.171Z,15.40
2018-04-18T19:12:02.701Z,15.40
2018-04-18T19:14:30.285Z,15.30
2018-04-18T19:16:58.146Z,15.30
2018-04-18T19:19:26.460Z,15.20
2018-04-18T19:21:54.963Z,15.10
2018-04-18T19:24:23.272Z,15.00
2018-04-18T19:26:50.806Z,15.00
2018-04-18T19:29:19.191Z,15.00
2018-04-18T19:31:46.752Z,15.00
2018-04-18T19:34:15.065Z,15.00
2018-04-18T19:36:42.729Z,14.90
2018-04-18T19:39:10.255Z,14.90
2018-04-18T19:41:38.607Z,14.80
2018-04-18T19:44:06.190Z,14.80
2018-04-18T19:46:33.758Z,14.70
2018-04-18T19:49:01.346Z,14.70
2018-04-18T19:51:29.068Z,14.60
2018-04-18T19:53:56.674Z,14.60
2018-04-18T19:56:24.980Z,14.50
2018-04-18T19:58:52.681Z,14.50
2018-04-18T20:01:20.245Z,14.40
2018-04-18T20:03:47.805Z,14.30
2018-04-18T20:06:15.475Z,14.20
2018-04-18T20:08:43.109Z,14.10
2018-04-18T20:11:10.660Z,14.00
2018-04-18T20:13:38.222Z,14.00
2018-04-18T20:16:06.608Z,13.80
2018-04-18T20:18:34.150Z,13.80
2018-04-18T20:21:03.098Z,13.70
2018-04-18T20:23:30.628Z,13.70
2018-04-18T20:25:58.164Z,13.70
2018-04-18T20:28:25.877Z,13.70
2018-04-18T20:30:53.457Z,13.60
2018-04-18T20:33:21.079Z,13.60
2018-04-18T20:35:49.735Z,13.60
2018-04-18T20:38:17.502Z,13.50
2018-04-18T20:40:45.124Z,13.60
2018-04-18T20:43:14.336Z,13.50
2018-04-18T20:45:41.963Z,13.50
2018-04-18T20:48:10.587Z,13.30
2018-04-18T20:50:38.781Z,13.30
2018-04-18T20:53:06.648Z,13.30
2018-04-18T20:55:34.357Z,13.30
2018-04-18T20:58:01.951Z,13.20
2018-04-18T21:00:29.485Z,13.20
2018-04-18T21:02:57.180Z,13.20
2018-04-18T21:05:24.705Z,13.10
2018-04-18T21:07:52.278Z,13.00
2018-04-18T21:10:19.961Z,13.00
2018-04-18T21:12:48.344Z,12.80
2018-04-18T21:15:16.925Z,12.70
2018-04-18T21:17:45.253Z,12.70
2018-04-18T21:20:12.780Z,12.70
2018-04-18T21:22:41.117Z,12.60
2018-04-18T21:25:09.421Z,12.60
2018-04-18T21:27:37.009Z,12.60
2018-04-18T21:30:04.633Z,12.60
2018-04-18T21:32:32.226Z,12.60
2018-04-18T21:34:59.739Z,12.70
2018-04-18T21:37:27.289Z,12.70
2018-04-18T21:39:54.799Z,12.70
2018-04-18T21:42:22.335Z,12.70
2018-04-18T21:44:49.875Z,12.70
2018-04-18T21:47:17.409Z,12.60
2018-04-18T21:49:45.744Z,12.60
2018-04-18T21:52:13.381Z,12.60
2018-04-18T21:54:40.928Z,12.50
2018-04-18T21:57:09.219Z,12.30
2018-04-18T21:59:37.053Z,12.30
2018-04-18T22:02:04.721Z,12.40
2018-04-18T22:04:32.244Z,12.30
2018-04-18T22:06:59.871Z,12.30
2018-04-18T22:09:28.157Z,12.30
2018-04-18T22:11:56.423Z,12.20
2018-04-18T22:14:24.936Z,12.20
2018-04-18T22:16:52.466Z,12.20
2018-04-18T22:19:20.760Z,12.00
2018-04-18T22:21:49.169Z,12.00
2018-04-18T22:24:16.693Z,12.00
2018-04-18T22:26:44.209Z,11.90
2018-04-18T22:29:11.947Z,11.90
2018-04-18T22:31:40.233Z,11.80
2018-04-18T22:34:07.756Z,11.80
2018-04-18T22:36:35.469Z,11.70
2018-04-18T22:39:02.981Z,11.70
2018-04-18T22:41:30.500Z,11.60
2018-04-18T22:43:58.147Z,11.60
2018-04-18T22:46:25.690Z,11.50
2018-04-18T22:48:53.207Z,11.60
2018-04-18T22:51:20.842Z,11.60
2018-04-18T22:53:48.373Z,11.50
2018-04-18T22:56:15.893Z,11.40
2018-04-18T22:58:43.555Z,11.40
2018-04-18T23:01:11.067Z,11.40
2018-04-18T23:03:38.593Z,11.40
2018-04-18T23:06:06.214Z,11.30
2018-04-18T23:08:34.492Z,11.30
2018-04-18T23:11:02.910Z,11.30
2018-04-18T23:13:30.445Z,11.30
2018-04-18T23:15:58.759Z,11.20
2018-04-18T23:18:26.400Z,11.20
2018-04-18T23:20:54.690Z,11.10
2018-04-18T23:23:22.207Z,11.00
2018-04-18T23:25:49.772Z,11.10
2018-04-18T23:28:17.297Z,11.00
2018-04-18T23:30:44.822Z,10.90
2018-04-18T23:33:13.225Z,10.80
2018-04-18T23:35:40.745Z,10.80
2018-04-18T23:38:08.259Z,10.80
2018-04-18T23:40:35.909Z,10.90
2018-04-18T23:43:03.444Z,10.90
2018-04-18T23:45:30.963Z,10.80
2018-04-18T23:47:58.511Z,10.80
2018-04-18T23:50:26.033Z,10.80
2018-04-18T23:52:53.550Z,10.80
2018-04-18T23:55:21.098Z,10.80
2018-04-18T23:57:48.624Z,10.70
